sensor_id;sensor_type;location;lat;lon;timestamp;P1;durP1;ratioP1;P2;durP2;ratioP2
46084;SDS011;31823;47.032;8.310;2024-03-29T00:00:54;2.72;;;1.00;;
46084;SDS011;31823;47.032;8.310;2024-03-29T00:03:20;1.58;;;1.20;;
46084;SDS011;31823;47.032;8.310;2024-03-29T00:05:46;1.25;;;0.80;;
46084;SDS011;31823;47.032;8.310;2024-03-29T00:08:12;2.63;;;1.00;;
46084;SDS011;31823;47.032;8.310;2024-03-29T00:10:37;1.17;;;1.10;;
46084;SDS011;31823;47.032;8.310;2024-03-29T00:13:03;0.80;;;0.80;;
46084;SDS011;31823;47.032;8.310;2024-03-29T00:15:31;1.38;;;1.02;;
46084;SDS011;31823;47.032;8.310;2024-03-29T00:17:57;3.63;;;1.00;;
46084;SDS011;31823;47.032;8.310;2024-03-29T00:20:22;1.23;;;1.13;;
46084;SDS011;31823;47.032;8.310;2024-03-29T00:22:48;1.63;;;1.20;;
46084;SDS011;31823;47.032;8.310;2024-03-29T00:25:14;0.85;;;0.80;;
46084;SDS011;31823;47.032;8.310;2024-03-29T00:27:40;0.75;;;0.75;;
46084;SDS011;31823;47.032;8.310;2024-03-29T00:30:05;0.70;;;0.70;;
46084;SDS011;31823;47.032;8.310;2024-03-29T00:32:31;1.13;;;1.00;;
46084;SDS011;31823;47.032;8.310;2024-03-29T00:34:57;1.40;;;1.30;;
46084;SDS011;31823;47.032;8.310;2024-03-29T00:37:23;1.17;;;1.05;;
46084;SDS011;31823;47.032;8.310;2024-03-29T00:39:49;1.30;;;1.10;;
46084;SDS011;31823;47.032;8.310;2024-03-29T00:42:15;2.00;;;1.00;;
46084;SDS011;31823;47.032;8.310;2024-03-29T00:44:41;1.30;;;1.00;;
46084;SDS011;31823;47.032;8.310;2024-03-29T00:47:08;1.35;;;1.02;;
46084;SDS011;31823;47.032;8.310;2024-03-29T00:49:34;2.65;;;1.42;;
46084;SDS011;31823;47.032;8.310;2024-03-29T00:52:00;3.60;;;1.10;;
46084;SDS011;31823;47.032;8.310;2024-03-29T00:54:26;1.20;;;1.10;;
46084;SDS011;31823;47.032;8.310;2024-03-29T00:56:52;2.25;;;1.05;;
46084;SDS011;31823;47.032;8.310;2024-03-29T00:59:18;1.52;;;1.20;;
46084;SDS011;31823;47.032;8.310;2024-03-29T01:01:44;4.15;;;1.35;;
46084;SDS011;31823;47.032;8.310;2024-03-29T01:04:10;1.85;;;1.33;;
46084;SDS011;31823;47.032;8.310;2024-03-29T01:06:36;1.33;;;1.13;;
46084;SDS011;31823;47.032;8.310;2024-03-29T01:09:02;1.02;;;1.00;;
46084;SDS011;31823;47.032;8.310;2024-03-29T01:11:29;1.10;;;1.00;;
46084;SDS011;31823;47.032;8.310;2024-03-29T01:13:55;6.45;;;1.10;;
46084;SDS011;31823;47.032;8.310;2024-03-29T01:16:21;1.70;;;1.20;;
46084;SDS011;31823;47.032;8.310;2024-03-29T01:18:47;2.28;;;1.38;;
46084;SDS011;31823;47.032;8.310;2024-03-29T01:21:13;1.48;;;1.20;;
46084;SDS011;31823;47.032;8.310;2024-03-29T01:23:38;1.02;;;0.93;;
46084;SDS011;31823;47.032;8.310;2024-03-29T01:26:05;1.25;;;1.15;;
46084;SDS011;31823;47.032;8.310;2024-03-29T01:28:31;2.70;;;1.20;;
46084;SDS011;31823;47.032;8.310;2024-03-29T01:30:57;2.38;;;1.20;;
46084;SDS011;31823;47.032;8.310;2024-03-29T01:33:23;3.10;;;1.30;;
46084;SDS011;31823;47.032;8.310;2024-03-29T01:35:49;1.40;;;1.30;;
46084;SDS011;31823;47.032;8.310;2024-03-29T01:38:15;4.45;;;1.38;;
46084;SDS011;31823;47.032;8.310;2024-03-29T01:40:41;1.20;;;1.08;;
46084;SDS011;31823;47.032;8.310;2024-03-29T01:43:07;1.30;;;1.20;;
46084;SDS011;31823;47.032;8.310;2024-03-29T01:45:34;1.33;;;1.10;;
46084;SDS011;31823;47.032;8.310;2024-03-29T01:48:03;1.17;;;1.08;;
46084;SDS011;31823;47.032;8.310;2024-03-29T01:50:29;1.65;;;1.15;;
46084;SDS011;31823;47.032;8.310;2024-03-29T01:52:55;1.63;;;1.30;;
46084;SDS011;31823;47.032;8.310;2024-03-29T01:55:21;1.00;;;1.00;;
46084;SDS011;31823;47.032;8.310;2024-03-29T01:57:47;1.40;;;1.30;;
46084;SDS011;31823;47.032;8.310;2024-03-29T02:00:13;1.52;;;0.90;;
46084;SDS011;31823;47.032;8.310;2024-03-29T02:02:39;1.30;;;1.20;;
46084;SDS011;31823;47.032;8.310;2024-03-29T02:05:05;0.73;;;0.73;;
46084;SDS011;31823;47.032;8.310;2024-03-29T02:07:31;1.00;;;1.00;;
46084;SDS011;31823;47.032;8.310;2024-03-29T02:09:57;1.10;;;1.00;;
46084;SDS011;31823;47.032;8.310;2024-03-29T02:12:23;0.93;;;0.90;;
46084;SDS011;31823;47.032;8.310;2024-03-29T02:14:48;1.48;;;1.13;;
46084;SDS011;31823;47.032;8.310;2024-03-29T02:17:14;0.63;;;0.63;;
46084;SDS011;31823;47.032;8.310;2024-03-29T02:19:39;1.02;;;0.90;;
46084;SDS011;31823;47.032;8.310;2024-03-29T02:22:05;1.27;;;1.00;;
46084;SDS011;31823;47.032;8.310;2024-03-29T02:24:32;1.00;;;0.90;;
46084;SDS011;31823;47.032;8.310;2024-03-29T02:26:58;0.88;;;0.88;;
46084;SDS011;31823;47.032;8.310;2024-03-29T02:29:25;0.88;;;0.82;;
46084;SDS011;31823;47.032;8.310;2024-03-29T02:31:50;0.77;;;0.77;;
46084;SDS011;31823;47.032;8.310;2024-03-29T02:34:16;0.70;;;0.70;;
46084;SDS011;31823;47.032;8.310;2024-03-29T02:36:41;1.02;;;0.80;;
46084;SDS011;31823;47.032;8.310;2024-03-29T02:39:08;0.80;;;0.80;;
46084;SDS011;31823;47.032;8.310;2024-03-29T02:41:34;0.60;;;0.60;;
46084;SDS011;31823;47.032;8.310;2024-03-29T02:44:00;0.95;;;0.95;;
46084;SDS011;31823;47.032;8.310;2024-03-29T02:46:26;0.75;;;0.70;;
46084;SDS011;31823;47.032;8.310;2024-03-29T02:48:51;1.40;;;1.02;;
46084;SDS011;31823;47.032;8.310;2024-03-29T02:51:17;0.90;;;0.90;;
46084;SDS011;31823;47.032;8.310;2024-03-29T02:53:43;1.92;;;0.80;;
46084;SDS011;31823;47.032;8.310;2024-03-29T02:56:08;1.58;;;0.70;;
46084;SDS011;31823;47.032;8.310;2024-03-29T02:58:34;0.80;;;0.80;;
46084;SDS011;31823;47.032;8.310;2024-03-29T03:01:09;0.50;;;0.50;;
46084;SDS011;31823;47.032;8.310;2024-03-29T03:03:35;2.20;;;1.00;;
46084;SDS011;31823;47.032;8.310;2024-03-29T03:06:02;0.70;;;0.70;;
46084;SDS011;31823;47.032;8.310;2024-03-29T03:08:28;1.13;;;0.77;;
46084;SDS011;31823;47.032;8.310;2024-03-29T03:11:13;1.00;;;0.90;;
46084;SDS011;31823;47.032;8.310;2024-03-29T03:13:39;0.65;;;0.65;;
46084;SDS011;31823;47.032;8.310;2024-03-29T03:16:05;0.80;;;0.80;;
46084;SDS011;31823;47.032;8.310;2024-03-29T03:18:30;0.80;;;0.80;;
46084;SDS011;31823;47.032;8.310;2024-03-29T03:20:56;0.75;;;0.70;;
46084;SDS011;31823;47.032;8.310;2024-03-29T03:23:25;1.30;;;0.90;;
46084;SDS011;31823;47.032;8.310;2024-03-29T03:25:57;1.60;;;1.10;;
46084;SDS011;31823;47.032;8.310;2024-03-29T03:28:24;0.82;;;0.82;;
46084;SDS011;31823;47.032;8.310;2024-03-29T03:30:50;1.95;;;1.00;;
46084;SDS011;31823;47.032;8.310;2024-03-29T03:33:16;1.08;;;1.00;;
46084;SDS011;31823;47.032;8.310;2024-03-29T03:35:42;1.10;;;0.90;;
46084;SDS011;31823;47.032;8.310;2024-03-29T03:38:12;3.28;;;1.00;;
46084;SDS011;31823;47.032;8.310;2024-03-29T03:40:38;1.13;;;0.98;;
46084;SDS011;31823;47.032;8.310;2024-03-29T03:43:04;1.20;;;1.10;;
46084;SDS011;31823;47.032;8.310;2024-03-29T03:45:34;1.98;;;1.08;;
46084;SDS011;31823;47.032;8.310;2024-03-29T03:48:01;0.82;;;0.82;;
46084;SDS011;31823;47.032;8.310;2024-03-29T03:50:31;0.93;;;0.93;;
46084;SDS011;31823;47.032;8.310;2024-03-29T03:52:56;0.93;;;0.90;;
46084;SDS011;31823;47.032;8.310;2024-03-29T03:55:22;0.82;;;0.70;;
46084;SDS011;31823;47.032;8.310;2024-03-29T03:57:48;1.23;;;1.10;;
46084;SDS011;31823;47.032;8.310;2024-03-29T04:00:14;0.98;;;0.70;;
46084;SDS011;31823;47.032;8.310;2024-03-29T04:02:39;0.75;;;0.73;;
46084;SDS011;31823;47.032;8.310;2024-03-29T04:05:06;3.90;;;1.10;;
46084;SDS011;31823;47.032;8.310;2024-03-29T04:07:32;1.05;;;0.95;;
46084;SDS011;31823;47.032;8.310;2024-03-29T04:09:57;3.40;;;1.00;;
46084;SDS011;31823;47.032;8.310;2024-03-29T04:12:23;2.33;;;1.20;;
46084;SDS011;31823;47.032;8.310;2024-03-29T04:14:49;2.05;;;1.20;;
46084;SDS011;31823;47.032;8.310;2024-03-29T04:17:14;1.17;;;1.08;;
46084;SDS011;31823;47.032;8.310;2024-03-29T04:19:40;2.00;;;1.13;;
46084;SDS011;31823;47.032;8.310;2024-03-29T04:22:05;1.95;;;1.25;;
46084;SDS011;31823;47.032;8.310;2024-03-29T04:24:31;1.20;;;1.10;;
46084;SDS011;31823;47.032;8.310;2024-03-29T04:26:57;1.00;;;1.00;;
46084;SDS011;31823;47.032;8.310;2024-03-29T04:29:22;1.50;;;0.93;;
46084;SDS011;31823;47.032;8.310;2024-03-29T04:31:48;0.88;;;0.88;;
46084;SDS011;31823;47.032;8.310;2024-03-29T04:34:14;0.70;;;0.70;;
46084;SDS011;31823;47.032;8.310;2024-03-29T04:36:39;0.80;;;0.80;;
46084;SDS011;31823;47.032;8.310;2024-03-29T04:39:05;1.10;;;1.00;;
46084;SDS011;31823;47.032;8.310;2024-03-29T04:41:31;1.25;;;0.93;;
46084;SDS011;31823;47.032;8.310;2024-03-29T04:44:00;1.00;;;1.00;;
46084;SDS011;31823;47.032;8.310;2024-03-29T04:46:29;1.83;;;1.08;;
46084;SDS011;31823;47.032;8.310;2024-03-29T04:48:56;1.02;;;0.98;;
46084;SDS011;31823;47.032;8.310;2024-03-29T04:51:22;1.77;;;1.60;;
46084;SDS011;31823;47.032;8.310;2024-03-29T04:53:48;2.90;;;1.00;;
46084;SDS011;31823;47.032;8.310;2024-03-29T04:56:13;1.73;;;1.15;;
46084;SDS011;31823;47.032;8.310;2024-03-29T04:58:39;1.23;;;1.13;;
46084;SDS011;31823;47.032;8.310;2024-03-29T05:01:04;1.65;;;0.82;;
46084;SDS011;31823;47.032;8.310;2024-03-29T05:03:30;0.90;;;0.90;;
46084;SDS011;31823;47.032;8.310;2024-03-29T05:05:56;2.78;;;0.95;;
46084;SDS011;31823;47.032;8.310;2024-03-29T05:08:21;0.80;;;0.80;;
46084;SDS011;31823;47.032;8.310;2024-03-29T05:10:50;5.10;;;0.90;;
46084;SDS011;31823;47.032;8.310;2024-03-29T05:13:17;2.30;;;1.20;;
46084;SDS011;31823;47.032;8.310;2024-03-29T05:15:44;2.05;;;1.20;;
46084;SDS011;31823;47.032;8.310;2024-03-29T05:18:10;0.98;;;0.77;;
46084;SDS011;31823;47.032;8.310;2024-03-29T05:20:36;1.08;;;0.98;;
46084;SDS011;31823;47.032;8.310;2024-03-29T05:23:02;0.70;;;0.70;;
46084;SDS011;31823;47.032;8.310;2024-03-29T05:25:31;1.40;;;1.20;;
46084;SDS011;31823;47.032;8.310;2024-03-29T05:27:56;1.20;;;1.10;;
46084;SDS011;31823;47.032;8.310;2024-03-29T05:30:22;1.38;;;0.85;;
46084;SDS011;31823;47.032;8.310;2024-03-29T05:32:49;1.65;;;0.90;;
46084;SDS011;31823;47.032;8.310;2024-03-29T05:35:15;0.65;;;0.65;;
46084;SDS011;31823;47.032;8.310;2024-03-29T05:37:41;1.20;;;0.90;;
46084;SDS011;31823;47.032;8.310;2024-03-29T05:40:07;1.20;;;0.77;;
46084;SDS011;31823;47.032;8.310;2024-03-29T05:42:33;0.90;;;0.90;;
46084;SDS011;31823;47.032;8.310;2024-03-29T05:45:00;0.80;;;0.80;;
46084;SDS011;31823;47.032;8.310;2024-03-29T05:47:26;1.02;;;1.02;;
46084;SDS011;31823;47.032;8.310;2024-03-29T05:49:53;1.00;;;0.90;;
46084;SDS011;31823;47.032;8.310;2024-03-29T05:52:19;1.02;;;0.80;;
46084;SDS011;31823;47.032;8.310;2024-03-29T05:54:45;0.80;;;0.80;;
46084;SDS011;31823;47.032;8.310;2024-03-29T05:57:11;1.75;;;0.98;;
46084;SDS011;31823;47.032;8.310;2024-03-29T05:59:38;0.80;;;0.80;;
46084;SDS011;31823;47.032;8.310;2024-03-29T06:02:03;3.47;;;1.08;;
46084;SDS011;31823;47.032;8.310;2024-03-29T06:04:30;2.25;;;0.90;;
46084;SDS011;31823;47.032;8.310;2024-03-29T06:07:00;1.27;;;1.13;;
46084;SDS011;31823;47.032;8.310;2024-03-29T06:09:27;1.33;;;1.10;;
46084;SDS011;31823;47.032;8.310;2024-03-29T06:11:53;1.38;;;1.00;;
46084;SDS011;31823;47.032;8.310;2024-03-29T06:14:20;1.10;;;1.00;;
46084;SDS011;31823;47.032;8.310;2024-03-29T06:17:04;1.67;;;1.58;;
46084;SDS011;31823;47.032;8.310;2024-03-29T06:19:48;2.25;;;0.95;;
46084;SDS011;31823;47.032;8.310;2024-03-29T06:22:20;1.40;;;1.10;;
46084;SDS011;31823;47.032;8.310;2024-03-29T06:24:45;2.35;;;1.10;;
46084;SDS011;31823;47.032;8.310;2024-03-29T06:27:12;2.33;;;1.10;;
46084;SDS011;31823;47.032;8.310;2024-03-29T06:29:42;1.40;;;1.00;;
46084;SDS011;31823;47.032;8.310;2024-03-29T06:32:08;0.93;;;0.93;;
46084;SDS011;31823;47.032;8.310;2024-03-29T06:34:33;2.63;;;2.05;;
46084;SDS011;31823;47.032;8.310;2024-03-29T06:36:59;1.85;;;1.25;;
46084;SDS011;31823;47.032;8.310;2024-03-29T06:39:24;1.88;;;1.38;;
46084;SDS011;31823;47.032;8.310;2024-03-29T06:41:53;1.08;;;1.00;;
46084;SDS011;31823;47.032;8.310;2024-03-29T06:44:18;1.50;;;1.40;;
46084;SDS011;31823;47.032;8.310;2024-03-29T06:46:45;3.85;;;1.40;;
46084;SDS011;31823;47.032;8.310;2024-03-29T06:49:11;1.73;;;1.52;;
46084;SDS011;31823;47.032;8.310;2024-03-29T06:51:38;1.60;;;1.48;;
46084;SDS011;31823;47.032;8.310;2024-03-29T06:54:05;2.90;;;1.77;;
46084;SDS011;31823;47.032;8.310;2024-03-29T06:56:30;5.57;;;1.48;;
46084;SDS011;31823;47.032;8.310;2024-03-29T06:58:56;3.83;;;2.13;;
46084;SDS011;31823;47.032;8.310;2024-03-29T07:01:22;4.78;;;1.40;;
46084;SDS011;31823;47.032;8.310;2024-03-29T07:03:47;1.63;;;1.45;;
46084;SDS011;31823;47.032;8.310;2024-03-29T07:06:13;2.25;;;1.92;;
46084;SDS011;31823;47.032;8.310;2024-03-29T07:08:38;3.45;;;1.58;;
46084;SDS011;31823;47.032;8.310;2024-03-29T07:11:04;3.25;;;1.83;;
46084;SDS011;31823;47.032;8.310;2024-03-29T07:13:30;1.77;;;1.27;;
46084;SDS011;31823;47.032;8.310;2024-03-29T07:15:56;4.05;;;1.50;;
46084;SDS011;31823;47.032;8.310;2024-03-29T07:18:25;1.52;;;1.42;;
46084;SDS011;31823;47.032;8.310;2024-03-29T07:20:51;2.33;;;1.75;;
46084;SDS011;31823;47.032;8.310;2024-03-29T07:23:17;1.38;;;1.20;;
46084;SDS011;31823;47.032;8.310;2024-03-29T07:25:56;1.48;;;1.38;;
46084;SDS011;31823;47.032;8.310;2024-03-29T07:28:24;1.73;;;1.55;;
46084;SDS011;31823;47.032;8.310;2024-03-29T07:30:50;2.80;;;1.30;;
46084;SDS011;31823;47.032;8.310;2024-03-29T07:33:17;3.67;;;1.60;;
46084;SDS011;31823;47.032;8.310;2024-03-29T07:35:42;1.52;;;1.40;;
46084;SDS011;31823;47.032;8.310;2024-03-29T07:38:08;2.20;;;1.33;;
46084;SDS011;31823;47.032;8.310;2024-03-29T07:40:34;2.63;;;1.40;;
46084;SDS011;31823;47.032;8.310;2024-03-29T07:42:59;1.58;;;1.30;;
46084;SDS011;31823;47.032;8.310;2024-03-29T07:45:26;3.05;;;1.30;;
46084;SDS011;31823;47.032;8.310;2024-03-29T07:47:52;1.42;;;1.20;;
46084;SDS011;31823;47.032;8.310;2024-03-29T07:50:18;3.08;;;1.52;;
46084;SDS011;31823;47.032;8.310;2024-03-29T07:52:45;1.42;;;1.33;;
46084;SDS011;31823;47.032;8.310;2024-03-29T07:55:10;1.75;;;1.10;;
46084;SDS011;31823;47.032;8.310;2024-03-29T07:57:36;1.83;;;1.20;;
46084;SDS011;31823;47.032;8.310;2024-03-29T08:00:02;2.10;;;1.48;;
46084;SDS011;31823;47.032;8.310;2024-03-29T08:02:28;1.45;;;1.35;;
46084;SDS011;31823;47.032;8.310;2024-03-29T08:04:55;2.00;;;1.70;;
46084;SDS011;31823;47.032;8.310;2024-03-29T08:07:20;2.83;;;1.60;;
46084;SDS011;31823;47.032;8.310;2024-03-29T08:09:46;1.30;;;1.20;;
46084;SDS011;31823;47.032;8.310;2024-03-29T08:12:12;2.55;;;1.38;;
46084;SDS011;31823;47.032;8.310;2024-03-29T08:14:37;1.17;;;0.95;;
46084;SDS011;31823;47.032;8.310;2024-03-29T08:17:03;2.03;;;1.10;;
46084;SDS011;31823;47.032;8.310;2024-03-29T08:19:32;1.55;;;1.42;;
46084;SDS011;31823;47.032;8.310;2024-03-29T08:21:59;1.17;;;1.17;;
46084;SDS011;31823;47.032;8.310;2024-03-29T08:24:26;1.30;;;1.20;;
46084;SDS011;31823;47.032;8.310;2024-03-29T08:26:52;1.00;;;0.90;;
46084;SDS011;31823;47.032;8.310;2024-03-29T08:29:17;1.75;;;1.00;;
46084;SDS011;31823;47.032;8.310;2024-03-29T08:31:43;1.92;;;1.10;;
46084;SDS011;31823;47.032;8.310;2024-03-29T08:34:08;2.25;;;1.30;;
46084;SDS011;31823;47.032;8.310;2024-03-29T08:36:38;1.52;;;1.30;;
46084;SDS011;31823;47.032;8.310;2024-03-29T08:39:04;1.27;;;1.17;;
46084;SDS011;31823;47.032;8.310;2024-03-29T08:41:29;1.98;;;1.42;;
46084;SDS011;31823;47.032;8.310;2024-03-29T08:43:55;1.70;;;1.60;;
46084;SDS011;31823;47.032;8.310;2024-03-29T08:46:21;2.72;;;1.88;;
46084;SDS011;31823;47.032;8.310;2024-03-29T08:48:47;2.63;;;1.80;;
46084;SDS011;31823;47.032;8.310;2024-03-29T08:51:13;3.10;;;1.80;;
46084;SDS011;31823;47.032;8.310;2024-03-29T08:53:39;2.67;;;1.80;;
46084;SDS011;31823;47.032;8.310;2024-03-29T08:56:05;2.58;;;1.70;;
46084;SDS011;31823;47.032;8.310;2024-03-29T08:58:31;1.65;;;1.55;;
46084;SDS011;31823;47.032;8.310;2024-03-29T09:00:57;3.30;;;1.58;;
46084;SDS011;31823;47.032;8.310;2024-03-29T09:03:23;2.65;;;1.50;;
46084;SDS011;31823;47.032;8.310;2024-03-29T09:05:49;2.85;;;1.80;;
46084;SDS011;31823;47.032;8.310;2024-03-29T09:08:15;2.13;;;1.50;;
46084;SDS011;31823;47.032;8.310;2024-03-29T09:10:41;2.00;;;1.40;;
46084;SDS011;31823;47.032;8.310;2024-03-29T09:13:07;2.15;;;1.33;;
46084;SDS011;31823;47.032;8.310;2024-03-29T09:15:34;2.22;;;1.73;;
46084;SDS011;31823;47.032;8.310;2024-03-29T09:18:00;1.98;;;1.27;;
46084;SDS011;31823;47.032;8.310;2024-03-29T09:20:35;2.30;;;1.40;;
46084;SDS011;31823;47.032;8.310;2024-03-29T09:23:02;2.47;;;2.17;;
46084;SDS011;31823;47.032;8.310;2024-03-29T09:25:28;5.13;;;1.45;;
46084;SDS011;31823;47.032;8.310;2024-03-29T09:27:55;1.95;;;1.85;;
46084;SDS011;31823;47.032;8.310;2024-03-29T09:30:20;2.15;;;1.70;;
46084;SDS011;31823;47.032;8.310;2024-03-29T09:32:47;2.42;;;1.50;;
46084;SDS011;31823;47.032;8.310;2024-03-29T09:35:14;1.58;;;1.35;;
46084;SDS011;31823;47.032;8.310;2024-03-29T09:37:40;1.67;;;1.48;;
46084;SDS011;31823;47.032;8.310;2024-03-29T09:40:07;2.78;;;1.60;;
46084;SDS011;31823;47.032;8.310;2024-03-29T09:42:35;2.80;;;1.80;;
46084;SDS011;31823;47.032;8.310;2024-03-29T09:45:03;2.20;;;1.40;;
46084;SDS011;31823;47.032;8.310;2024-03-29T09:47:31;1.92;;;1.70;;
46084;SDS011;31823;47.032;8.310;2024-03-29T09:49:58;1.60;;;1.50;;
46084;SDS011;31823;47.032;8.310;2024-03-29T09:52:27;2.10;;;1.70;;
46084;SDS011;31823;47.032;8.310;2024-03-29T09:54:53;3.10;;;1.90;;
46084;SDS011;31823;47.032;8.310;2024-03-29T09:57:21;2.05;;;1.65;;
46084;SDS011;31823;47.032;8.310;2024-03-29T09:59:46;2.00;;;1.40;;
46084;SDS011;31823;47.032;8.310;2024-03-29T10:02:15;1.30;;;1.20;;
46084;SDS011;31823;47.032;8.310;2024-03-29T10:04:45;1.77;;;1.50;;
46084;SDS011;31823;47.032;8.310;2024-03-29T10:07:13;1.77;;;1.40;;
46084;SDS011;31823;47.032;8.310;2024-03-29T10:09:40;2.85;;;1.33;;
46084;SDS011;31823;47.032;8.310;2024-03-29T10:12:08;3.70;;;1.42;;
46084;SDS011;31823;47.032;8.310;2024-03-29T10:14:46;1.38;;;1.27;;
46084;SDS011;31823;47.032;8.310;2024-03-29T10:17:17;1.90;;;1.20;;
46084;SDS011;31823;47.032;8.310;2024-03-29T10:19:44;1.63;;;1.40;;
46084;SDS011;31823;47.032;8.310;2024-03-29T10:22:10;2.53;;;1.65;;
46084;SDS011;31823;47.032;8.310;2024-03-29T10:24:36;2.20;;;1.60;;
46084;SDS011;31823;47.032;8.310;2024-03-29T10:27:02;2.75;;;1.48;;
46084;SDS011;31823;47.032;8.310;2024-03-29T10:29:28;1.80;;;1.45;;
46084;SDS011;31823;47.032;8.310;2024-03-29T10:31:57;1.77;;;1.63;;
46084;SDS011;31823;47.032;8.310;2024-03-29T10:34:26;2.35;;;1.52;;
46084;SDS011;31823;47.032;8.310;2024-03-29T10:36:52;2.03;;;1.45;;
46084;SDS011;31823;47.032;8.310;2024-03-29T10:39:18;1.92;;;1.70;;
46084;SDS011;31823;47.032;8.310;2024-03-29T10:41:46;2.05;;;1.48;;
46084;SDS011;31823;47.032;8.310;2024-03-29T10:44:15;2.42;;;1.60;;
46084;SDS011;31823;47.032;8.310;2024-03-29T10:46:40;2.97;;;1.60;;
46084;SDS011;31823;47.032;8.310;2024-03-29T10:49:07;3.05;;;1.50;;
46084;SDS011;31823;47.032;8.310;2024-03-29T10:51:38;1.95;;;1.70;;
46084;SDS011;31823;47.032;8.310;2024-03-29T10:54:05;1.52;;;1.42;;
46084;SDS011;31823;47.032;8.310;2024-03-29T10:56:34;5.30;;;1.58;;
46084;SDS011;31823;47.032;8.310;2024-03-29T10:59:01;2.20;;;1.75;;
46084;SDS011;31823;47.032;8.310;2024-03-29T11:01:36;1.90;;;1.27;;
46084;SDS011;31823;47.032;8.310;2024-03-29T11:04:07;6.97;;;1.85;;
46084;SDS011;31823;47.032;8.310;2024-03-29T11:06:38;7.93;;;2.08;;
46084;SDS011;31823;47.032;8.310;2024-03-29T11:09:06;1.35;;;1.23;;
46084;SDS011;31823;47.032;8.310;2024-03-29T11:11:37;2.08;;;1.35;;
46084;SDS011;31823;47.032;8.310;2024-03-29T11:14:08;1.95;;;1.40;;
46084;SDS011;31823;47.032;8.310;2024-03-29T11:16:39;4.93;;;1.10;;
46084;SDS011;31823;47.032;8.310;2024-03-29T11:19:10;4.20;;;1.40;;
46084;SDS011;31823;47.032;8.310;2024-03-29T11:21:39;2.63;;;1.27;;
46084;SDS011;31823;47.032;8.310;2024-03-29T11:24:07;1.55;;;0.98;;
46084;SDS011;31823;47.032;8.310;2024-03-29T11:26:34;2.13;;;1.40;;
46084;SDS011;31823;47.032;8.310;2024-03-29T11:29:00;1.35;;;1.20;;
46084;SDS011;31823;47.032;8.310;2024-03-29T11:31:27;1.27;;;1.05;;
46084;SDS011;31823;47.032;8.310;2024-03-29T11:33:52;2.45;;;1.48;;
46084;SDS011;31823;47.032;8.310;2024-03-29T11:36:22;1.48;;;1.17;;
46084;SDS011;31823;47.032;8.310;2024-03-29T11:38:57;1.58;;;1.10;;
46084;SDS011;31823;47.032;8.310;2024-03-29T11:41:23;2.75;;;1.17;;
46084;SDS011;31823;47.032;8.310;2024-03-29T11:43:50;1.45;;;1.23;;
46084;SDS011;31823;47.032;8.310;2024-03-29T11:46:16;1.30;;;1.17;;
46084;SDS011;31823;47.032;8.310;2024-03-29T11:48:43;1.30;;;1.15;;
46084;SDS011;31823;47.032;8.310;2024-03-29T11:51:12;2.25;;;1.20;;
46084;SDS011;31823;47.032;8.310;2024-03-29T11:53:42;1.40;;;1.10;;
46084;SDS011;31823;47.032;8.310;2024-03-29T11:56:08;1.83;;;1.25;;
46084;SDS011;31823;47.032;8.310;2024-03-29T11:58:36;2.35;;;1.02;;
46084;SDS011;31823;47.032;8.310;2024-03-29T12:01:02;1.20;;;1.08;;
46084;SDS011;31823;47.032;8.310;2024-03-29T12:03:28;3.47;;;1.13;;
46084;SDS011;31823;47.032;8.310;2024-03-29T12:05:55;1.20;;;1.10;;
46084;SDS011;31823;47.032;8.310;2024-03-29T12:08:30;1.08;;;0.90;;
46084;SDS011;31823;47.032;8.310;2024-03-29T12:11:00;1.38;;;1.27;;
46084;SDS011;31823;47.032;8.310;2024-03-29T12:13:28;1.27;;;1.15;;
46084;SDS011;31823;47.032;8.310;2024-03-29T12:15:54;0.88;;;0.77;;
46084;SDS011;31823;47.032;8.310;2024-03-29T12:18:20;1.27;;;1.17;;
46084;SDS011;31823;47.032;8.310;2024-03-29T12:20:50;0.95;;;0.85;;
46084;SDS011;31823;47.032;8.310;2024-03-29T12:23:17;1.02;;;0.93;;
46084;SDS011;31823;47.032;8.310;2024-03-29T12:25:44;1.13;;;1.02;;
46084;SDS011;31823;47.032;8.310;2024-03-29T12:28:11;2.10;;;1.45;;
46084;SDS011;31823;47.032;8.310;2024-03-29T12:30:37;1.05;;;0.80;;
46084;SDS011;31823;47.032;8.310;2024-03-29T12:33:07;2.38;;;1.08;;
46084;SDS011;31823;47.032;8.310;2024-03-29T12:35:36;0.85;;;0.85;;
46084;SDS011;31823;47.032;8.310;2024-03-29T12:38:03;1.10;;;1.00;;
46084;SDS011;31823;47.032;8.310;2024-03-29T12:40:30;3.42;;;1.05;;
46084;SDS011;31823;47.032;8.310;2024-03-29T12:43:05;0.75;;;0.75;;
46084;SDS011;31823;47.032;8.310;2024-03-29T12:45:33;1.95;;;1.23;;
46084;SDS011;31823;47.032;8.310;2024-03-29T12:48:08;0.95;;;0.80;;
46084;SDS011;31823;47.032;8.310;2024-03-29T12:50:39;0.80;;;0.80;;
46084;SDS011;31823;47.032;8.310;2024-03-29T12:53:07;0.77;;;0.77;;
46084;SDS011;31823;47.032;8.310;2024-03-29T12:55:33;0.70;;;0.70;;
46084;SDS011;31823;47.032;8.310;2024-03-29T12:58:04;1.00;;;0.80;;
46084;SDS011;31823;47.032;8.310;2024-03-29T13:00:33;0.85;;;0.82;;
46084;SDS011;31823;47.032;8.310;2024-03-29T13:02:59;0.90;;;0.90;;
46084;SDS011;31823;47.032;8.310;2024-03-29T13:05:24;0.65;;;0.63;;
46084;SDS011;31823;47.032;8.310;2024-03-29T13:07:51;0.85;;;0.75;;
46084;SDS011;31823;47.032;8.310;2024-03-29T13:10:17;0.70;;;0.70;;
46084;SDS011;31823;47.032;8.310;2024-03-29T13:12:46;0.82;;;0.73;;
46084;SDS011;31823;47.032;8.310;2024-03-29T13:17:45;1.17;;;0.90;;
46084;SDS011;31823;47.032;8.310;2024-03-29T13:20:12;1.10;;;1.00;;
46084;SDS011;31823;47.032;8.310;2024-03-29T13:22:40;1.38;;;0.95;;
46084;SDS011;31823;47.032;8.310;2024-03-29T13:25:11;2.50;;;0.80;;
46084;SDS011;31823;47.032;8.310;2024-03-29T13:27:40;1.00;;;0.90;;
46084;SDS011;31823;47.032;8.310;2024-03-29T13:30:07;1.35;;;0.70;;
46084;SDS011;31823;47.032;8.310;2024-03-29T13:32:37;1.35;;;1.00;;
46084;SDS011;31823;47.032;8.310;2024-03-29T13:35:04;0.80;;;0.80;;
46084;SDS011;31823;47.032;8.310;2024-03-29T13:37:32;1.10;;;0.82;;
46084;SDS011;31823;47.032;8.310;2024-03-29T13:39:57;1.20;;;0.80;;
46084;SDS011;31823;47.032;8.310;2024-03-29T13:42:23;2.15;;;1.00;;
46084;SDS011;31823;47.032;8.310;2024-03-29T13:44:49;0.80;;;0.80;;
46084;SDS011;31823;47.032;8.310;2024-03-29T13:47:15;0.70;;;0.70;;
46084;SDS011;31823;47.032;8.310;2024-03-29T13:49:42;1.17;;;0.95;;
46084;SDS011;31823;47.032;8.310;2024-03-29T13:52:08;1.70;;;0.90;;
46084;SDS011;31823;47.032;8.310;2024-03-29T13:54:34;3.15;;;0.98;;
46084;SDS011;31823;47.032;8.310;2024-03-29T13:57:01;0.82;;;0.80;;
46084;SDS011;31823;47.032;8.310;2024-03-29T13:59:28;2.42;;;1.00;;
46084;SDS011;31823;47.032;8.310;2024-03-29T14:01:54;1.45;;;0.90;;
46084;SDS011;31823;47.032;8.310;2024-03-29T14:04:20;1.23;;;1.00;;
46084;SDS011;31823;47.032;8.310;2024-03-29T14:06:45;1.67;;;1.00;;
46084;SDS011;31823;47.032;8.310;2024-03-29T14:09:11;3.42;;;0.90;;
46084;SDS011;31823;47.032;8.310;2024-03-29T14:11:37;0.98;;;0.88;;
46084;SDS011;31823;47.032;8.310;2024-03-29T14:14:02;1.33;;;1.17;;
46084;SDS011;31823;47.032;8.310;2024-03-29T14:16:32;1.00;;;0.90;;
46084;SDS011;31823;47.032;8.310;2024-03-29T14:18:57;1.10;;;1.00;;
46084;SDS011;31823;47.032;8.310;2024-03-29T14:21:23;1.00;;;0.90;;
46084;SDS011;31823;47.032;8.310;2024-03-29T14:23:48;0.70;;;0.70;;
46084;SDS011;31823;47.032;8.310;2024-03-29T14:26:14;0.85;;;0.85;;
46084;SDS011;31823;47.032;8.310;2024-03-29T14:28:40;0.80;;;0.80;;
46084;SDS011;31823;47.032;8.310;2024-03-29T14:31:12;0.90;;;0.90;;
46084;SDS011;31823;47.032;8.310;2024-03-29T14:33:38;1.23;;;1.10;;
46084;SDS011;31823;47.032;8.310;2024-03-29T14:36:04;1.63;;;1.20;;
46084;SDS011;31823;47.032;8.310;2024-03-29T14:38:29;2.13;;;1.13;;
46084;SDS011;31823;47.032;8.310;2024-03-29T14:40:55;1.98;;;1.17;;
46084;SDS011;31823;47.032;8.310;2024-03-29T14:43:21;8.27;;;0.90;;
46084;SDS011;31823;47.032;8.310;2024-03-29T14:45:47;1.20;;;1.05;;
46084;SDS011;31823;47.032;8.310;2024-03-29T14:48:17;1.70;;;1.27;;